KSYN

Details ICAO KSYN
Name Stanton Airfield
Region United States
Timezone America/Chicago (UTC-6.0)
Plans Departing 0
Arriving 1
Stats Elevation 920 ft / 280 m (AMSL)
Location 44.475522° -93.016322°
Runways 2
Magnetic Variation 0.063° E
Sunrise 2017-12-10 13:39:10 UTC / 2017-12-10 07:39:10 Local
Sunset 2017-12-10 22:33:44 UTC / 2017-12-10 16:33:44 Local
Advertisement - Login to hide

Runways

ID Width Length Bearing (true) Bearing (mag) Surface Threshold Offset Overrun Length
09 300 ft / 91 m 1,998 ft / 609 m 93.00° 92.94° Grass 0 ft / 0 m 0 ft / 0 m
18 300 ft / 91 m 2,584 ft / 788 m 183.00° 182.94° Grass 0 ft / 0 m 0 ft / 0 m
27 300 ft / 91 m 1,998 ft / 609 m 273.00° 272.94° Grass 0 ft / 0 m 0 ft / 0 m
36 300 ft / 91 m 2,584 ft / 788 m 3.00° 2.94° Grass 0 ft / 0 m 0 ft / 0 m

Map

Weather


0- 5 10 15 20 25 30 35+ Temperature / ° C

Clouds and Precipitation
Forecast for 2017-12-11 06:00 UTC. Updated an hour ago

Ground ~20,000 ft ~40,000 ft Winds

METAR

KSYN 110355Z AUTO 17003KT 10SM SCT085 M06/M08 A2998 RMK AO2 T10651080

TAF

Not found
Warning: Do not use this data for real-world aviation or navigation. No guarantee of current accuracy is given.